createdAt,value
2019-05-20T00:02:34.509Z,15.60
2019-05-20T00:05:14.675Z,15.50
2019-05-20T00:07:54.650Z,15.60
2019-05-20T00:10:34.842Z,15.50
2019-05-20T00:13:14.927Z,15.50
2019-05-20T00:15:54.914Z,15.70
2019-05-20T00:18:34.944Z,15.50
2019-05-20T00:21:16.008Z,15.50
2019-05-20T00:23:56.336Z,15.40
2019-05-20T00:26:36.681Z,15.40
2019-05-20T00:29:04.392Z,15.10
2019-05-20T00:31:51.381Z,15.30
2019-05-20T00:34:35.280Z,15.30
2019-05-20T00:37:13.775Z,15.40
2019-05-20T00:39:41.813Z,15.40
2019-05-20T00:42:28.842Z,15.40
2019-05-20T00:45:15.945Z,15.40
2019-05-20T00:47:55.947Z,15.50
2019-05-20T00:50:35.965Z,15.60
2019-05-20T00:53:03.695Z,15.40
2019-05-20T00:55:50.726Z,15.40
2019-05-20T00:58:38.003Z,15.30
2019-05-20T01:01:19.520Z,15.50
2019-05-20T01:03:59.675Z,15.50
2019-05-20T01:06:39.730Z,15.40
2019-05-20T01:09:19.810Z,15.60
2019-05-20T01:11:59.894Z,15.50
2019-05-20T01:14:43.664Z,15.30
2019-05-20T01:17:24.056Z,15.30
2019-05-20T01:20:04.506Z,15.50
2019-05-20T01:22:44.606Z,15.50
2019-05-20T01:25:24.583Z,15.30
2019-05-20T01:31:06.042Z,15.30
2019-05-20T01:33:46.239Z,15.20
2019-05-20T01:36:26.240Z,15.30
2019-05-20T01:39:06.254Z,15.20
2019-05-20T01:41:46.273Z,15.20
2019-05-20T01:44:26.306Z,15.20
2019-05-20T01:47:06.269Z,15.30
2019-05-20T01:49:46.505Z,15.10
2019-05-20T01:52:26.401Z,15.00
2019-05-20T01:55:06.506Z,15.00
2019-05-20T01:57:46.503Z,14.80
2019-05-20T02:00:26.786Z,15.00
2019-05-20T02:03:06.914Z,15.10
2019-05-20T02:05:47.026Z,15.00
2019-05-20T02:08:27.025Z,15.10
2019-05-20T02:11:07.151Z,14.70
2019-05-20T02:16:46.235Z,14.70
2019-05-20T02:19:26.149Z,15.10
2019-05-20T02:22:06.427Z,14.60
2019-05-20T02:24:46.582Z,14.70
2019-05-20T02:27:26.718Z,14.70
2019-05-20T02:30:06.835Z,14.70
2019-05-20T02:32:46.898Z,14.70
2019-05-20T02:35:27.063Z,14.80
2019-05-20T02:38:07.255Z,14.70
2019-05-20T02:40:34.897Z,14.70
2019-05-20T02:43:22.315Z,14.60
2019-05-20T02:46:09.667Z,14.70
2019-05-20T02:48:37.477Z,14.60
2019-05-20T02:51:43.887Z,14.50
2019-05-20T02:54:24.398Z,14.60
2019-05-20T03:00:17.873Z,14.50
2019-05-20T03:02:57.415Z,14.60
2019-05-20T03:05:37.789Z,14.60
2019-05-20T03:11:30.764Z,14.60
2019-05-20T03:14:10.830Z,14.50
2019-05-20T03:16:50.614Z,14.30
2019-05-20T03:19:30.719Z,14.40
2019-05-20T03:22:10.842Z,14.50
2019-05-20T03:24:50.786Z,14.60
2019-05-20T03:27:30.822Z,14.60
2019-05-20T03:30:10.928Z,14.40
2019-05-20T03:32:51.009Z,14.90
2019-05-20T03:35:31.239Z,14.60
2019-05-20T03:41:10.723Z,14.50
2019-05-20T03:43:50.413Z,14.40
2019-05-20T03:46:30.605Z,14.50
2019-05-20T03:49:11.949Z,14.50
2019-05-20T03:51:39.784Z,14.60
2019-05-20T03:54:26.900Z,14.50
2019-05-20T03:57:13.971Z,14.40
2019-05-20T03:59:54.184Z,14.40
2019-05-20T04:02:34.261Z,14.40
2019-05-20T04:05:14.402Z,14.50
2019-05-20T04:07:54.453Z,14.30
2019-05-20T04:10:34.715Z,14.20
2019-05-20T04:13:14.967Z,14.50
2019-05-20T04:15:55.090Z,14.60
2019-05-20T04:18:35.425Z,14.50
2019-05-20T04:21:15.483Z,14.40
2019-05-20T04:23:43.209Z,14.30
2019-05-20T04:26:30.406Z,14.30
2019-05-20T04:29:10.827Z,14.30
2019-05-20T04:31:51.049Z,14.20
2019-05-20T04:34:31.466Z,14.40
2019-05-20T04:37:11.425Z,14.30
2019-05-20T04:39:51.643Z,14.30
2019-05-20T04:42:31.555Z,14.40
2019-05-20T04:45:11.535Z,14.40
2019-05-20T04:47:51.718Z,14.40
2019-05-20T04:53:44.867Z,14.50
2019-05-20T04:56:28.399Z,14.60
2019-05-20T04:59:07.050Z,14.60
2019-05-20T05:01:47.235Z,14.40
2019-05-20T05:04:27.137Z,14.60
2019-05-20T05:07:07.074Z,14.60
2019-05-20T05:09:34.765Z,14.80
2019-05-20T05:12:21.845Z,14.50
2019-05-20T05:15:09.166Z,14.50
2019-05-20T05:17:48.855Z,14.50
2019-05-20T05:20:28.988Z,14.50
2019-05-20T05:23:09.017Z,14.50
2019-05-20T05:25:49.248Z,14.60
2019-05-20T05:28:29.286Z,14.50
2019-05-20T05:31:09.121Z,14.60
2019-05-20T05:33:49.252Z,14.50
2019-05-20T05:36:29.326Z,14.50
2019-05-20T05:39:09.290Z,14.50
2019-05-20T05:41:49.295Z,14.50
2019-05-20T05:44:29.494Z,14.40
2019-05-20T05:47:09.681Z,14.50
2019-05-20T05:49:49.753Z,14.50
2019-05-20T05:52:30.118Z,14.40
2019-05-20T05:55:10.054Z,14.40
2019-05-20T05:57:50.006Z,14.40
2019-05-20T06:00:30.166Z,14.60
2019-05-20T06:03:10.437Z,14.40
2019-05-20T06:05:50.437Z,14.40
2019-05-20T06:08:30.547Z,14.50
2019-05-20T06:11:10.483Z,14.50
2019-05-20T06:13:50.629Z,14.30
2019-05-20T06:16:36.675Z,14.40
2019-05-20T06:19:12.522Z,14.40
2019-05-20T06:21:52.365Z,14.50
2019-05-20T06:24:32.374Z,14.40
2019-05-20T06:27:12.242Z,14.60
2019-05-20T06:29:52.376Z,14.40
2019-05-20T06:32:32.533Z,14.50
2019-05-20T06:35:12.399Z,14.50
2019-05-20T06:37:54.849Z,14.40
2019-05-20T06:40:35.385Z,14.30
2019-05-20T06:43:15.201Z,14.70
2019-05-20T06:45:55.261Z,14.50
2019-05-20T06:48:35.778Z,14.60
2019-05-20T06:51:16.260Z,14.50
2019-05-20T06:53:56.577Z,14.40
2019-05-20T06:56:36.952Z,14.20
2019-05-20T06:59:16.818Z,14.40
2019-05-20T07:01:56.993Z,14.30
2019-05-20T07:04:37.110Z,14.20
2019-05-20T07:07:19.862Z,14.30
2019-05-20T07:09:34.429Z,14.30
2019-05-20T07:12:21.390Z,14.20
2019-05-20T07:15:01.758Z,14.20
2019-05-20T07:17:41.777Z,14.30
2019-05-20T07:20:22.028Z,14.40
2019-05-20T07:23:02.118Z,14.20
2019-05-20T07:25:42.226Z,14.30
2019-05-20T07:28:22.348Z,14.20
2019-05-20T07:31:02.650Z,13.90
2019-05-20T07:33:47.467Z,14.30
2019-05-20T07:36:27.978Z,13.90
2019-05-20T07:39:08.281Z,14.10
2019-05-20T07:41:48.224Z,14.10
2019-05-20T07:44:28.458Z,14.10
2019-05-20T07:47:10.895Z,14.10
2019-05-20T07:49:50.683Z,14.00
2019-05-20T07:52:31.042Z,14.20
2019-05-20T07:55:10.949Z,14.20
2019-05-20T07:57:51.105Z,14.30
2019-05-20T08:00:31.335Z,14.30
2019-05-20T08:03:11.379Z,14.20
2019-05-20T08:05:39.027Z,14.30
2019-05-20T08:08:06.678Z,14.30
2019-05-20T08:10:53.813Z,14.30
2019-05-20T08:13:42.178Z,14.50
2019-05-20T08:16:22.583Z,14.40
2019-05-20T08:19:02.604Z,14.50
2019-05-20T08:21:42.698Z,14.80
2019-05-20T08:24:22.667Z,14.70
2019-05-20T08:27:05.981Z,15.00
2019-05-20T08:29:45.869Z,14.80
2019-05-20T08:32:28.326Z,15.00
2019-05-20T08:35:07.933Z,14.90
2019-05-20T08:37:47.930Z,15.00
2019-05-20T08:40:28.145Z,15.00
2019-05-20T08:43:08.463Z,14.90
2019-05-20T08:45:36.076Z,14.90
2019-05-20T08:48:23.112Z,14.80
2019-05-20T08:51:10.175Z,14.90
2019-05-20T08:53:50.103Z,14.80
2019-05-20T08:56:30.419Z,14.80
2019-05-20T08:59:10.526Z,15.00
2019-05-20T09:01:50.610Z,14.90
2019-05-20T09:04:30.706Z,14.80
2019-05-20T09:07:11.082Z,14.90
2019-05-20T09:09:38.829Z,14.70
2019-05-20T09:12:06.451Z,14.80
2019-05-20T09:14:53.466Z,14.70
2019-05-20T09:17:40.606Z,14.60
2019-05-20T09:20:20.403Z,14.80
2019-05-20T09:23:02.835Z,14.70
2019-05-20T09:25:42.581Z,14.50
2019-05-20T09:28:22.611Z,14.30
2019-05-20T09:31:02.550Z,14.40
2019-05-20T09:33:42.644Z,14.70
2019-05-20T09:36:25.721Z,14.50
2019-05-20T09:39:05.014Z,14.50
2019-05-20T09:41:44.946Z,14.60
2019-05-20T09:44:12.635Z,14.60
2019-05-20T09:46:59.654Z,14.50
2019-05-20T09:49:46.669Z,14.80
2019-05-20T09:52:27.004Z,14.60
2019-05-20T09:55:07.036Z,14.80
2019-05-20T09:57:47.106Z,14.80
2019-05-20T10:00:27.090Z,14.70
2019-05-20T10:03:07.819Z,14.80
2019-05-20T10:05:48.280Z,14.60
2019-05-20T10:08:39.017Z,14.70
2019-05-20T10:11:10.494Z,14.60
2019-05-20T10:13:50.630Z,14.70
2019-05-20T10:16:30.653Z,14.80
2019-05-20T10:19:11.031Z,14.70
2019-05-20T10:21:51.025Z,14.50
2019-05-20T10:24:31.051Z,14.80
2019-05-20T10:27:11.122Z,14.80
2019-05-20T10:29:38.797Z,14.80
2019-05-20T10:32:25.963Z,14.80
2019-05-20T10:35:13.114Z,15.10
2019-05-20T10:37:52.820Z,15.30
2019-05-20T10:40:32.926Z,15.00
2019-05-20T10:43:13.083Z,14.70
2019-05-20T10:45:53.289Z,15.00
2019-05-20T10:48:33.223Z,14.80
2019-05-20T10:51:13.637Z,15.00
2019-05-20T10:53:53.472Z,15.10
2019-05-20T10:56:33.328Z,14.90
2019-05-20T10:59:13.343Z,15.10
2019-05-20T11:01:40.936Z,14.80
2019-05-20T11:04:27.955Z,15.00
2019-05-20T11:07:07.980Z,14.90
2019-05-20T11:09:47.946Z,15.00
2019-05-20T11:12:27.981Z,15.00
2019-05-20T11:15:07.830Z,15.00
2019-05-20T11:17:47.930Z,15.00
2019-05-20T11:20:27.987Z,15.10
2019-05-20T11:23:07.764Z,15.20
2019-05-20T11:25:48.604Z,15.20
2019-05-20T11:28:28.826Z,15.30
2019-05-20T11:31:08.868Z,15.30
2019-05-20T11:33:49.068Z,15.50
2019-05-20T11:36:29.275Z,15.60
2019-05-20T11:39:09.411Z,15.60
2019-05-20T11:41:53.509Z,15.70
2019-05-20T11:44:31.311Z,15.50
2019-05-20T11:47:11.260Z,15.70
2019-05-20T11:49:51.594Z,15.60
2019-05-20T11:52:31.491Z,15.30
2019-05-20T11:55:11.469Z,15.70
2019-05-20T11:57:51.685Z,15.40
2019-05-20T12:00:31.612Z,15.30
2019-05-20T12:03:11.465Z,15.10
2019-05-20T12:05:43.817Z,15.20
2019-05-20T12:08:30.893Z,15.20
2019-05-20T12:11:18.022Z,15.90
2019-05-20T12:13:58.454Z,15.80
2019-05-20T12:16:38.702Z,15.60
2019-05-20T12:19:18.778Z,15.50
2019-05-20T12:21:58.938Z,15.20
2019-05-20T12:24:31.040Z,15.40
2019-05-20T12:27:18.091Z,15.10
2019-05-20T12:33:19.986Z,15.20
2019-05-20T12:35:54.362Z,15.30
2019-05-20T12:38:34.525Z,15.10
2019-05-20T12:41:14.477Z,15.00
2019-05-20T12:44:10.736Z,15.10
2019-05-20T12:46:36.450Z,14.70
2019-05-20T12:49:17.618Z,14.70
2019-05-20T12:51:57.914Z,14.60
2019-05-20T12:54:38.137Z,14.30
2019-05-20T12:57:18.091Z,14.30
2019-05-20T12:59:58.283Z,14.50
2019-05-20T13:02:38.333Z,14.50
2019-05-20T13:05:18.113Z,14.30
2019-05-20T13:07:58.286Z,14.50
2019-05-20T13:10:38.300Z,14.60
2019-05-20T13:13:18.453Z,14.40
2019-05-20T13:15:58.747Z,14.60
2019-05-20T13:18:54.678Z,14.30
2019-05-20T13:21:20.823Z,14.40
2019-05-20T13:24:00.947Z,14.00
2019-05-20T13:26:41.064Z,14.20
2019-05-20T13:29:08.725Z,14.20
2019-05-20T13:31:55.764Z,14.10
2019-05-20T13:34:42.877Z,14.20
2019-05-20T13:37:22.436Z,14.10
2019-05-20T13:40:03.379Z,14.10
2019-05-20T13:42:43.490Z,14.20
2019-05-20T13:45:23.558Z,14.30
2019-05-20T13:48:03.593Z,14.40
2019-05-20T13:50:43.590Z,14.20
2019-05-20T13:53:23.817Z,14.30
2019-05-20T13:56:03.825Z,13.90
2019-05-20T13:58:43.703Z,13.90
2019-05-20T14:01:23.777Z,14.00
2019-05-20T14:04:03.946Z,14.00
2019-05-20T14:06:43.970Z,13.90
2019-05-20T14:09:24.143Z,14.10
2019-05-20T14:12:04.073Z,14.00
2019-05-20T14:14:44.217Z,13.90
2019-05-20T14:17:24.317Z,13.70
2019-05-20T14:20:04.455Z,14.10
2019-05-20T14:22:34.095Z,13.70
2019-05-20T14:25:21.085Z,13.60
2019-05-20T14:28:00.663Z,13.70
2019-05-20T14:33:40.273Z,13.50
2019-05-20T14:36:39.494Z,13.50
2019-05-20T14:39:08.808Z,13.50
2019-05-20T14:41:48.933Z,13.50
2019-05-20T14:44:28.974Z,13.60
2019-05-20T14:47:08.942Z,13.60
2019-05-20T14:49:48.950Z,13.50
2019-05-20T14:52:29.014Z,13.60
2019-05-20T14:55:09.100Z,13.50
2019-05-20T14:57:48.983Z,13.60
2019-05-20T15:00:29.278Z,13.80
2019-05-20T15:03:09.252Z,13.70
2019-05-20T15:05:49.882Z,13.90
2019-05-20T15:08:33.923Z,13.80
2019-05-20T15:11:12.666Z,13.80
2019-05-20T15:13:52.978Z,13.70
2019-05-20T15:16:20.769Z,13.90
2019-05-20T15:19:07.932Z,13.70
2019-05-20T15:21:54.977Z,13.80
2019-05-20T15:24:34.723Z,13.60
2019-05-20T15:27:15.109Z,13.60
2019-05-20T15:29:54.801Z,13.60
2019-05-20T15:32:34.838Z,13.60
2019-05-20T15:35:14.979Z,13.50
2019-05-20T15:37:54.919Z,13.70
2019-05-20T15:40:35.105Z,14.00
2019-05-20T15:43:15.299Z,13.90
2019-05-20T15:45:55.394Z,13.60
2019-05-20T15:48:35.606Z,13.70
2019-05-20T15:51:15.705Z,13.70
2019-05-20T15:53:55.741Z,13.60
2019-05-20T15:56:35.656Z,13.60
2019-05-20T15:59:15.791Z,13.60
2019-05-20T16:01:55.999Z,13.70
2019-05-20T16:04:35.996Z,13.80
2019-05-20T16:07:16.379Z,13.80
2019-05-20T16:09:45.082Z,13.70
2019-05-20T16:12:34.251Z,13.60
2019-05-20T16:15:20.997Z,13.70
2019-05-20T16:18:01.317Z,13.50
2019-05-20T16:20:41.531Z,13.50
2019-05-20T16:23:21.667Z,13.60
2019-05-20T16:26:01.724Z,13.70
2019-05-20T16:28:42.057Z,13.70
2019-05-20T16:34:20.859Z,13.60
2019-05-20T16:37:01.042Z,13.70
2019-05-20T16:39:41.192Z,13.70
2019-05-20T16:42:21.507Z,13.50
2019-05-20T16:45:01.956Z,13.50
2019-05-20T16:47:42.059Z,13.50
2019-05-20T16:50:22.322Z,13.50
2019-05-20T16:53:02.603Z,13.40
2019-05-20T16:55:42.661Z,13.40
2019-05-20T16:58:10.565Z,13.40
2019-05-20T17:00:57.609Z,13.30
2019-05-20T17:03:44.641Z,13.30
2019-05-20T17:06:27.554Z,13.30
2019-05-20T17:09:07.929Z,13.40
2019-05-20T17:11:48.021Z,13.40
2019-05-20T17:14:28.010Z,13.50
2019-05-20T17:17:08.556Z,13.40
2019-05-20T17:19:48.472Z,13.50
2019-05-20T17:22:28.784Z,13.30
2019-05-20T17:25:09.280Z,13.50
2019-05-20T17:27:49.342Z,13.60
2019-05-20T17:33:31.731Z,13.70
2019-05-20T17:36:11.645Z,13.60
2019-05-20T17:38:39.369Z,13.40
2019-05-20T17:41:19.606Z,13.50
2019-05-20T17:43:59.642Z,13.80
2019-05-20T17:46:39.578Z,13.40
2019-05-20T17:49:11.854Z,13.40
2019-05-20T17:51:58.881Z,13.40
2019-05-20T17:54:39.402Z,13.40
2019-05-20T17:57:19.674Z,13.10
2019-05-20T18:00:00.825Z,13.40
2019-05-20T18:02:41.008Z,13.20
2019-05-20T18:05:21.370Z,13.30
2019-05-20T18:08:01.334Z,13.20
2019-05-20T18:10:41.945Z,13.20
2019-05-20T18:13:21.883Z,13.10
2019-05-20T18:16:02.214Z,13.20
2019-05-20T18:18:42.333Z,13.20
2019-05-20T18:21:22.514Z,12.90
2019-05-20T18:24:02.543Z,13.00
2019-05-20T18:26:42.755Z,13.00
2019-05-20T18:29:23.186Z,13.00
2019-05-20T18:32:03.763Z,13.00
2019-05-20T18:34:43.755Z,13.00
2019-05-20T18:37:23.848Z,13.00
2019-05-20T18:40:13.436Z,13.00
2019-05-20T18:42:46.271Z,13.00
2019-05-20T18:45:26.156Z,13.00
2019-05-20T18:48:06.501Z,13.00
2019-05-20T18:50:46.641Z,13.00
2019-05-20T18:53:26.854Z,13.10
2019-05-20T18:56:06.962Z,13.00
2019-05-20T18:58:49.187Z,12.90
2019-05-20T19:01:29.694Z,13.10
2019-05-20T19:04:09.720Z,13.20
2019-05-20T19:06:49.882Z,13.20
2019-05-20T19:09:30.314Z,13.40
2019-05-20T19:12:10.741Z,13.30
2019-05-20T19:14:50.830Z,13.10
2019-05-20T19:17:31.026Z,13.00
2019-05-20T19:20:10.900Z,13.00
2019-05-20T19:22:50.953Z,13.10
2019-05-20T19:25:37.725Z,13.00
2019-05-20T19:28:13.458Z,13.20
2019-05-20T19:30:53.367Z,13.20
2019-05-20T19:33:34.969Z,13.00
2019-05-20T19:36:15.562Z,13.00
2019-05-20T19:38:43.489Z,12.90
2019-05-20T19:41:11.146Z,12.80
2019-05-20T19:43:58.201Z,12.80
2019-05-20T19:46:38.174Z,13.10
2019-05-20T19:49:18.366Z,13.00
2019-05-20T19:51:58.563Z,12.80
2019-05-20T19:54:38.679Z,12.70
2019-05-20T19:57:19.520Z,12.80
2019-05-20T20:00:00.012Z,12.90
2019-05-20T20:02:27.690Z,12.90
2019-05-20T20:05:15.007Z,12.70
2019-05-20T20:08:02.169Z,12.90
2019-05-20T20:10:42.039Z,12.90
2019-05-20T20:13:22.250Z,13.10
2019-05-20T20:15:50.406Z,13.30
2019-05-20T20:18:44.240Z,13.50
2019-05-20T20:21:24.117Z,13.30
2019-05-20T20:24:04.315Z,13.50
2019-05-20T20:26:44.575Z,13.20
2019-05-20T20:29:12.533Z,13.10
2019-05-20T20:31:59.545Z,12.90
2019-05-20T20:34:46.639Z,12.70
2019-05-20T20:37:33.689Z,12.70
2019-05-20T20:40:13.902Z,12.70
2019-05-20T20:42:54.001Z,12.60
2019-05-20T20:45:34.198Z,12.40
2019-05-20T20:48:14.625Z,12.60
2019-05-20T20:50:54.912Z,13.10
2019-05-20T20:53:34.954Z,13.00
2019-05-20T20:56:24.634Z,12.80
2019-05-20T20:58:57.320Z,12.90
2019-05-20T21:01:37.287Z,13.20
2019-05-20T21:04:17.277Z,12.90
2019-05-20T21:06:57.354Z,13.20
2019-05-20T21:09:37.478Z,13.20
2019-05-20T21:12:17.840Z,13.10
2019-05-20T21:14:57.776Z,12.90
2019-05-20T21:17:25.614Z,13.10
2019-05-20T21:20:12.941Z,13.10
2019-05-20T21:22:52.950Z,13.30
2019-05-20T21:25:33.217Z,13.10
2019-05-20T21:28:13.678Z,13.20
2019-05-20T21:30:53.804Z,12.70
2019-05-20T21:33:33.858Z,13.20
2019-05-20T21:36:13.781Z,13.10
2019-05-20T21:38:53.925Z,13.20
2019-05-20T21:41:34.105Z,13.20
2019-05-20T21:44:13.982Z,13.00
2019-05-20T21:46:54.126Z,13.20
2019-05-20T21:49:34.256Z,13.40
2019-05-20T21:52:14.342Z,13.30
2019-05-20T21:54:54.427Z,13.30
2019-05-20T21:57:34.601Z,13.20
2019-05-20T22:00:18.348Z,13.10
2019-05-20T22:02:58.797Z,13.20
2019-05-20T22:05:26.385Z,12.90
2019-05-20T22:08:13.429Z,12.70
2019-05-20T22:11:00.459Z,12.70
2019-05-20T22:13:40.602Z,12.80
2019-05-20T22:16:20.923Z,12.60
2019-05-20T22:19:01.091Z,12.60
2019-05-20T22:21:48.071Z,12.80
2019-05-20T22:24:28.342Z,12.60
2019-05-20T22:27:08.365Z,12.50
2019-05-20T22:29:48.752Z,12.40
2019-05-20T22:32:28.635Z,12.60
2019-05-20T22:35:08.458Z,12.60
2019-05-20T22:37:48.423Z,12.80
2019-05-20T22:40:28.524Z,12.70
2019-05-20T22:43:08.774Z,12.60
2019-05-20T22:45:48.743Z,12.50
2019-05-20T22:48:28.732Z,12.60
2019-05-20T22:51:08.933Z,12.70
2019-05-20T22:53:48.918Z,12.80
2019-05-20T22:56:29.029Z,12.60
2019-05-20T22:59:09.193Z,12.50
2019-05-20T23:01:49.174Z,12.40
2019-05-20T23:04:29.232Z,12.50
2019-05-20T23:07:09.346Z,12.60
2019-05-20T23:09:49.540Z,12.50
2019-05-20T23:12:29.685Z,12.60
2019-05-20T23:15:09.801Z,12.60
2019-05-20T23:17:50.317Z,12.50
2019-05-20T23:20:29.965Z,12.50
2019-05-20T23:23:09.809Z,12.40
2019-05-20T23:25:52.684Z,12.40
2019-05-20T23:28:32.029Z,12.40
2019-05-20T23:31:12.411Z,12.40
2019-05-20T23:33:52.494Z,12.40
2019-05-20T23:36:32.734Z,12.70
2019-05-20T23:39:12.523Z,12.50
2019-05-20T23:41:52.839Z,12.80
2019-05-20T23:44:32.862Z,12.60
2019-05-20T23:47:12.962Z,12.30
2019-05-20T23:49:52.923Z,12.50
2019-05-20T23:52:32.940Z,12.20
2019-05-20T23:55:00.561Z,12.40
2019-05-20T23:57:47.589Z,12.40
